Time;durP1;ratioP1;P1;durP2;ratioP2;P2;SDS_P1;SDS_P2;PMS_P1;PMS_P2;Temp;Humidity;BMP_temperature;BMP_pressure;BME280_temperature;BME280_humidity;BME280_pressure;Samples;Min_cycle;Max_cycle;Signal;HPM_P1;HPM_P2
2022/04/02 00:02:47;;;;;;;6.20;1.48;;;11.20;99.60;;;;;;5033733;28;20056;-64
2022/04/02 00:05:52;;;;;;;11.80;1.75;;;11.20;99.70;;;;;;5033490;28;20040;-64
2022/04/02 00:08:56;;;;;;;10.05;1.95;;;11.20;99.90;;;;;;5033347;28;20068;-63
2022/04/02 00:12:01;;;;;;;11.15;2.22;;;11.20;99.90;;;;;;5033516;28;20052;-64
2022/04/02 00:15:05;;;;;;;11.75;1.60;;;11.20;99.90;;;;;;5032967;28;20052;-63
2022/04/02 00:18:10;;;;;;;20.27;2.78;;;11.00;99.90;;;;;;5032892;28;20567;-64
2022/04/02 00:21:14;;;;;;;9.32;2.40;;;11.00;99.90;;;;;;5033073;28;20500;-64
2022/04/02 00:24:18;;;;;;;10.65;1.88;;;11.00;99.90;;;;;;5020803;28;20048;-64
2022/04/02 00:27:22;;;;;;;13.13;2.20;;;10.90;99.90;;;;;;5032784;28;20048;-63
2022/04/02 00:30:26;;;;;;;8.38;2.10;;;10.80;99.90;;;;;;5020355;28;20390;-63
2022/04/02 00:33:30;;;;;;;12.85;1.73;;;10.90;99.90;;;;;;5032562;28;20061;-63
2022/04/02 00:36:37;;;;;;;24.92;2.65;;;10.80;99.90;;;;;;5020402;28;20401;-64
2022/04/02 00:39:41;;;;;;;12.80;2.05;;;10.80;99.90;;;;;;5032758;28;20045;-64
2022/04/02 00:42:45;;;;;;;21.75;3.17;;;10.90;99.90;;;;;;5032884;28;20049;-63
2022/04/02 00:45:53;;;;;;;19.95;2.95;;;10.90;99.90;;;;;;5032725;28;20052;-63
2022/04/02 00:48:58;;;;;;;14.27;2.40;;;11.00;99.90;;;;;;5032630;28;20048;-64
2022/04/02 00:52:01;;;;;;;12.30;2.80;;;11.00;99.90;;;;;;5032967;28;20066;-64
2022/04/02 00:55:06;;;;;;;10.88;2.83;;;11.00;99.90;;;;;;5020537;28;20052;-64
2022/04/02 00:58:11;;;;;;;19.27;3.75;;;11.10;99.90;;;;;;5019974;28;20040;-64
2022/04/02 01:01:17;;;;;;;13.10;2.55;;;11.10;99.90;;;;;;5020438;28;20044;-64
2022/04/02 01:04:24;;;;;;;14.93;2.10;;;11.20;99.90;;;;;;5019991;28;20044;-64
2022/04/02 01:07:30;;;;;;;16.70;2.17;;;11.20;99.90;;;;;;5032321;28;20044;-64
2022/04/02 01:10:41;;;;;;;13.25;1.95;;;11.10;99.80;;;;;;5018760;28;20045;-64
2022/04/02 01:13:58;;;;;;;10.23;1.90;;;11.10;99.90;;;;;;5021627;28;20053;-64
2022/04/02 01:17:04;;;;;;;26.75;2.45;;;11.00;99.90;;;;;;5020005;28;20496;-64
2022/04/02 01:20:12;;;;;;;11.00;1.92;;;10.90;99.90;;;;;;5019726;28;20361;-64
2022/04/02 01:23:16;;;;;;;14.95;2.38;;;10.80;99.90;;;;;;5019476;28;20049;-64
2022/04/02 01:26:22;;;;;;;16.27;2.20;;;10.90;99.90;;;;;;5019754;28;20405;-64
2022/04/02 01:29:32;;;;;;;17.33;3.33;;;11.00;99.90;;;;;;5019719;28;20040;-64
2022/04/02 01:32:37;;;;;;;12.98;2.47;;;10.90;99.90;;;;;;5019448;28;20052;-64
2022/04/02 01:35:56;;;;;;;14.10;2.38;;;10.90;99.90;;;;;;5019375;28;20052;-64
2022/04/02 01:39:00;;;;;;;14.30;2.05;;;10.90;99.90;;;;;;5007991;28;20060;-64
2022/04/02 01:42:07;;;;;;;10.27;2.65;;;10.90;99.90;;;;;;5019498;28;20096;-64
2022/04/02 01:45:18;;;;;;;16.13;2.88;;;10.80;99.90;;;;;;5031857;28;20044;-64
2022/04/02 01:48:28;;;;;;;19.77;4.55;;;10.70;99.90;;;;;;5019256;28;20572;-64
2022/04/02 01:51:38;;;;;;;18.65;3.75;;;10.60;99.90;;;;;;5019404;28;20500;-64
2022/04/02 01:54:48;;;;;;;15.35;3.17;;;10.50;99.90;;;;;;5019289;28;20404;-63
2022/04/02 01:57:54;;;;;;;18.90;2.35;;;10.50;99.90;;;;;;5019713;28;20036;-64
2022/04/02 02:01:08;;;;;;;21.17;2.95;;;10.50;99.90;;;;;;5019230;28;20052;-64
2022/04/02 02:04:13;;;;;;;22.10;3.53;;;10.60;99.90;;;;;;5019084;28;20040;-64
2022/04/02 02:07:18;;;;;;;17.17;4.15;;;10.70;99.50;;;;;;5031307;28;20052;-64
2022/04/02 02:10:27;;;;;;;31.83;3.38;;;10.80;98.20;;;;;;5019214;28;20113;-64
2022/04/02 02:13:46;;;;;;;26.17;3.15;;;10.80;97.70;;;;;;5030980;28;20068;-64
2022/04/02 02:16:57;;;;;;;17.95;3.30;;;10.80;97.60;;;;;;5018799;28;20040;-64
2022/04/02 02:20:02;;;;;;;27.27;3.65;;;10.70;97.50;;;;;;5019179;28;20045;-64
2022/04/02 02:23:06;;;;;;;18.67;3.25;;;10.70;97.20;;;;;;5031198;28;20048;-64
2022/04/02 02:26:10;;;;;;;21.23;3.53;;;10.80;96.00;;;;;;5030952;28;20040;-64
2022/04/02 02:29:14;;;;;;;20.00;3.13;;;10.70;96.20;;;;;;5018574;28;20044;-64
2022/04/02 02:32:18;;;;;;;16.98;3.85;;;10.60;96.10;;;;;;5030745;28;20064;-64
2022/04/02 02:38:46;;;;;;;25.25;3.83;;;10.50;96.20;;;;;;5018480;28;20044;-64
2022/04/02 02:41:55;;;;;;;18.73;2.90;;;10.60;95.50;;;;;;5018985;28;20401;-63
2022/04/02 02:45:18;;;;;;;24.95;3.22;;;10.70;94.80;;;;;;5018678;28;20068;-64
2022/04/02 02:48:22;;;;;;;18.25;3.88;;;10.80;94.70;;;;;;5018844;28;20045;-64
2022/04/02 02:51:31;;;;;;;25.10;3.28;;;10.80;94.50;;;;;;5018603;28;20044;-64
2022/04/02 02:54:35;;;;;;;16.02;3.20;;;10.80;94.20;;;;;;5030651;28;20053;-63
2022/04/02 02:57:42;;;;;;;23.35;3.00;;;10.70;94.60;;;;;;5018385;28;20044;-63
2022/04/02 03:00:46;;;;;;;28.42;4.03;;;10.70;94.90;;;;;;5018747;28;20048;-63
2022/04/02 03:03:57;;;;;;;23.20;3.97;;;10.60;94.80;;;;;;5018373;28;20044;-63
2022/04/02 03:07:05;;;;;;;18.92;3.67;;;10.50;95.30;;;;;;5018522;28;20052;-63
2022/04/02 03:10:16;;;;;;;25.70;3.67;;;10.40;95.50;;;;;;5018591;28;20053;-63
2022/04/02 03:13:20;;;;;;;14.90;2.63;;;10.40;95.60;;;;;;5030475;28;20061;-63
2022/04/02 03:16:25;;;;;;;19.23;3.42;;;10.30;95.70;;;;;;5018641;28;20048;-63
2022/04/02 03:19:41;;;;;;;24.60;4.03;;;10.20;96.20;;;;;;5018253;28;20056;-63
2022/04/02 03:22:47;;;;;;;15.68;3.13;;;10.10;96.20;;;;;;5018507;28;20053;-63
2022/04/02 03:25:51;;;;;;;21.50;3.50;;;10.10;96.30;;;;;;5030480;28;20045;-63
2022/04/02 03:28:56;;;;;;;28.42;4.07;;;10.00;96.70;;;;;;5018442;28;20405;-63
2022/04/02 03:32:04;;;;;;;15.52;2.90;;;10.10;96.20;;;;;;5018000;28;20060;-64
2022/04/02 03:35:11;;;;;;;26.85;4.93;;;10.30;95.20;;;;;;5021734;28;20064;-64
2022/04/02 03:38:15;;;;;;;23.42;3.50;;;10.30;95.20;;;;;;5021861;28;20488;-64
2022/04/02 03:41:23;;;;;;;20.60;3.80;;;10.30;95.10;;;;;;5021838;28;20046;-64
2022/04/02 03:44:29;;;;;;;20.85;3.35;;;10.20;95.10;;;;;;5022048;28;20037;-64
2022/04/02 03:47:33;;;;;;;22.00;4.65;;;10.20;95.30;;;;;;5021760;28;20512;-64
2022/04/02 03:50:40;;;;;;;21.45;3.20;;;10.10;95.00;;;;;;5021839;28;20048;-64
2022/04/02 03:53:46;;;;;;;26.38;3.88;;;10.10;94.90;;;;;;5033760;28;20048;-64
2022/04/02 03:56:52;;;;;;;23.08;3.88;;;10.10;95.10;;;;;;5021574;28;20044;-64
2022/04/02 03:59:56;;;;;;;17.80;3.40;;;10.00;95.40;;;;;;5021619;28;20044;-64
2022/04/02 04:03:00;;;;;;;20.02;3.22;;;10.00;95.10;;;;;;5021547;28;20504;-64
2022/04/02 04:06:09;;;;;;;23.25;3.40;;;10.00;94.40;;;;;;5033520;28;20091;-64
2022/04/02 04:09:14;;;;;;;23.17;3.53;;;10.10;93.40;;;;;;5021335;28;20044;-64
2022/04/02 04:12:21;;;;;;;27.25;3.55;;;10.10;93.60;;;;;;5033567;28;20385;-64
2022/04/02 04:15:30;;;;;;;18.63;4.72;;;10.10;93.50;;;;;;5021073;28;20065;-64
2022/04/02 04:18:36;;;;;;;17.13;3.22;;;10.20;92.80;;;;;;5021368;28;20048;-64
2022/04/02 04:21:40;;;;;;;22.85;3.22;;;10.20;92.70;;;;;;5033147;28;20045;-64
2022/04/02 04:24:46;;;;;;;19.75;3.33;;;10.20;92.60;;;;;;5020936;28;20041;-64
2022/04/02 04:27:51;;;;;;;20.85;3.30;;;10.10;92.70;;;;;;5020870;28;20041;-64
2022/04/02 04:30:56;;;;;;;17.50;3.47;;;10.20;92.40;;;;;;5033075;28;20041;-65
2022/04/02 04:34:01;;;;;;;27.90;3.00;;;10.20;92.20;;;;;;5020692;28;20047;-65
2022/04/02 04:37:05;;;;;;;14.43;3.20;;;10.30;91.50;;;;;;5032914;28;20044;-64
2022/04/02 04:40:10;;;;;;;19.98;3.25;;;10.40;90.70;;;;;;5020778;28;20045;-64
2022/04/02 04:43:17;;;;;;;12.98;4.60;;;10.40;90.50;;;;;;5020749;28;20048;-64
2022/04/02 04:46:24;;;;;;;19.90;4.35;;;10.50;90.30;;;;;;5020471;28;20036;-66
2022/04/02 04:49:31;;;;;;;16.90;3.28;;;10.50;89.90;;;;;;5009616;28;20049;-64
2022/04/02 04:52:40;;;;;;;12.00;2.85;;;10.50;90.40;;;;;;5020817;28;20060;-63
2022/04/02 04:55:44;;;;;;;16.33;2.67;;;10.50;90.00;;;;;;5009327;28;20520;-64
2022/04/02 04:58:52;;;;;;;21.75;4.18;;;10.50;89.90;;;;;;5020514;28;20048;-63
2022/04/02 05:02:01;;;;;;;17.35;3.38;;;10.50;89.40;;;;;;5020397;28;20049;-64
2022/04/02 05:05:05;;;;;;;18.40;3.17;;;10.40;90.10;;;;;;5020415;28;20508;-64
2022/04/02 05:08:11;;;;;;;15.82;3.13;;;10.30;90.80;;;;;;5020413;28;20048;-64
2022/04/02 05:11:16;;;;;;;22.80;2.83;;;10.30;90.20;;;;;;5020200;28;20056;-65
2022/04/02 05:14:26;;;;;;;17.67;3.22;;;10.30;90.80;;;;;;5019965;28;20520;-64
2022/04/02 05:17:34;;;;;;;18.23;3.08;;;10.30;90.40;;;;;;5008917;28;20044;-63
2022/04/02 05:20:39;;;;;;;15.18;3.08;;;10.40;90.10;;;;;;5019905;28;20048;-64
2022/04/02 05:23:44;;;;;;;12.52;3.35;;;10.50;90.20;;;;;;5008708;28;20049;-65
2022/04/02 05:26:52;;;;;;;18.45;2.90;;;10.80;89.00;;;;;;5008718;28;20048;-64
2022/04/02 05:29:57;;;;;;;19.92;3.03;;;11.40;87.80;;;;;;5019781;28;20056;-64
2022/04/02 05:33:01;;;;;;;13.57;2.35;;;12.40;83.70;;;;;;5031976;28;20045;-65
2022/04/02 05:36:05;;;;;;;13.48;2.85;;;13.20;80.20;;;;;;5019522;28;20056;-64
2022/04/02 05:39:09;;;;;;;15.88;3.75;;;13.30;78.00;;;;;;5019536;28;20072;-70
2022/04/02 05:42:13;;;;;;;13.27;3.05;;;12.90;81.10;;;;;;5031679;28;20399;-69
2022/04/02 05:45:17;;;;;;;11.25;2.80;;;12.60;85.50;;;;;;5008344;28;20049;-69
2022/04/02 05:48:21;;;;;;;13.95;2.80;;;12.30;85.90;;;;;;5019634;28;20048;-70
2022/04/02 05:51:25;;;;;;;17.13;2.53;;;11.90;86.90;;;;;;5031651;28;20041;-70
2022/04/02 05:54:30;;;;;;;19.83;3.58;;;11.60;87.10;;;;;;5031457;28;20409;-68
2022/04/02 05:57:35;;;;;;;22.48;4.32;;;11.50;88.30;;;;;;5030941;28;20053;-69
2022/04/02 06:00:41;;;;;;;11.93;3.20;;;11.40;89.20;;;;;;5031499;28;20052;-68
2022/04/02 06:03:46;;;;;;;19.92;3.03;;;12.30;89.20;;;;;;5031434;28;20041;-69
2022/04/02 06:06:50;;;;;;;24.55;3.70;;;13.50;84.80;;;;;;5031607;28;20052;-68
2022/04/02 06:09:54;;;;;;;16.88;3.50;;;14.30;82.30;;;;;;5031201;28;20658;-69
2022/04/02 06:12:58;;;;;;;20.35;3.67;;;14.80;77.80;;;;;;5031407;28;20063;-69
2022/04/02 06:16:02;;;;;;;14.43;2.75;;;15.30;75.60;;;;;;5031116;28;20048;-69
2022/04/02 06:19:06;;;;;;;12.75;3.40;;;15.60;74.50;;;;;;5018865;28;20064;-73
2022/04/02 06:22:10;;;;;;;11.85;3.03;;;15.70;73.70;;;;;;5031368;28;20045;-69
2022/04/02 06:25:14;;;;;;;13.05;3.45;;;15.90;73.40;;;;;;5031057;28;20404;-70
2022/04/02 06:28:19;;;;;;;16.02;3.50;;;16.10;71.00;;;;;;5030828;28;20048;-74
2022/04/02 06:31:23;;;;;;;11.98;3.53;;;16.20;70.70;;;;;;5030832;28;20133;-70
2022/04/02 06:34:27;;;;;;;15.35;3.28;;;16.10;69.30;;;;;;5018699;28;20064;-69
2022/04/02 06:37:39;;;;;;;13.80;3.38;;;15.60;70.50;;;;;;5018589;28;20040;-71
2022/04/02 06:40:42;;;;;;;24.50;5.05;;;15.20;70.80;;;;;;5018383;28;20053;-71
2022/04/02 06:43:46;;;;;;;14.38;3.20;;;14.70;71.60;;;;;;5031209;28;20048;-70
2022/04/02 06:46:56;;;;;;;23.80;4.00;;;14.60;72.50;;;;;;5030909;28;20405;-72
2022/04/02 06:50:10;;;;;;;18.38;4.68;;;14.60;73.30;;;;;;5030760;28;20033;-72
2022/04/02 06:53:15;;;;;;;18.23;3.22;;;14.90;73.30;;;;;;5030411;28;20057;-72
2022/04/02 06:56:19;;;;;;;18.42;3.38;;;15.40;70.00;;;;;;5018853;28;20060;-75
2022/04/02 06:59:23;;;;;;;17.52;2.92;;;15.40;71.20;;;;;;5018537;28;20045;-74
2022/04/02 07:02:27;;;;;;;12.95;4.18;;;15.40;70.40;;;;;;5018373;28;20555;-69
2022/04/02 07:05:31;;;;;;;16.05;2.42;;;15.60;70.20;;;;;;5028807;28;20690;-82
2022/04/02 07:08:38;;;;;;;13.85;2.40;;;15.90;69.90;;;;;;5008455;28;20049;-71
2022/04/02 07:11:43;;;;;;;15.65;3.30;;;16.00;69.00;;;;;;5032585;28;20048;-71
2022/04/02 07:14:46;;;;;;;12.82;3.28;;;16.20;69.10;;;;;;5032710;28;20060;-72
2022/04/02 07:17:52;;;;;;;17.52;3.22;;;16.40;67.40;;;;;;5032309;28;20496;-70
2022/04/02 07:21:00;;;;;;;14.98;2.88;;;16.50;66.80;;;;;;5032616;28;20421;-72
2022/04/02 07:24:05;;;;;;;14.07;2.50;;;16.70;66.90;;;;;;5033323;28;20389;-70
2022/04/02 07:27:09;;;;;;;19.70;2.63;;;16.80;64.60;;;;;;5020531;28;20048;-71
2022/04/02 07:30:14;;;;;;;13.40;3.08;;;16.80;66.60;;;;;;5032814;28;20041;-70
2022/04/02 07:33:18;;;;;;;16.88;4.47;;;16.90;64.10;;;;;;5034203;28;20061;-70
2022/04/02 07:36:49;;;;;;;8.95;2.22;;;17.00;62.90;;;;;;5033879;28;20056;-71
2022/04/02 07:40:11;;;;;;;10.80;2.50;;;16.80;62.40;;;;;;5034353;28;20053;-71
2022/04/02 07:43:22;;;;;;;16.17;2.45;;;16.50;61.20;;;;;;5034285;28;20393;-70
2022/04/02 07:46:32;;;;;;;16.15;2.67;;;16.40;62.40;;;;;;5033840;28;20044;-71
2022/04/02 07:49:44;;;;;;;15.23;3.58;;;16.40;62.40;;;;;;5010788;28;20057;-71
2022/04/02 07:52:52;;;;;;;12.38;2.80;;;16.20;62.00;;;;;;5033945;28;20389;-71
2022/04/02 07:56:03;;;;;;;14.63;2.33;;;16.00;62.40;;;;;;5021582;28;20056;-71
2022/04/02 07:59:22;;;;;;;9.70;2.70;;;15.70;62.10;;;;;;5033618;28;20040;-72
2022/04/02 08:02:38;;;;;;;14.48;2.17;;;15.50;64.20;;;;;;5021540;28;20060;-70
2022/04/02 08:05:43;;;;;;;9.57;2.42;;;15.10;67.80;;;;;;5033676;28;20045;-71
2022/04/02 08:08:48;;;;;;;9.90;2.40;;;14.60;70.10;;;;;;5033547;28;20048;-70
2022/04/02 08:11:52;;;;;;;8.88;2.10;;;14.40;73.30;;;;;;5033286;28;20044;-71
2022/04/02 08:14:56;;;;;;;7.80;2.17;;;14.40;72.70;;;;;;5033001;28;20456;-72
2022/04/02 08:18:02;;;;;;;8.15;1.90;;;14.40;73.40;;;;;;5033334;28;20040;-72
2022/04/02 08:21:08;;;;;;;7.45;2.13;;;14.40;73.20;;;;;;5020972;28;20170;-79
2022/04/02 08:24:13;;;;;;;12.30;2.80;;;14.40;71.30;;;;;;4998915;28;20052;-72
2022/04/02 08:27:45;;;;;;;7.60;2.15;;;14.30;69.40;;;;;;5020839;28;20046;-73
2022/04/02 08:31:04;;;;;;;17.25;2.38;;;14.20;70.30;;;;;;5032903;28;20044;-73
2022/04/02 08:34:49;;;;;;;12.20;2.17;;;14.00;72.10;;;;;;5033169;28;20052;-74
2022/04/02 08:38:21;;;;;;;11.32;2.15;;;13.90;71.60;;;;;;5015050;28;20124;-72
2022/04/02 08:42:04;;;;;;;9.88;2.25;;;13.80;72.90;;;;;;5033239;28;20052;-72
2022/04/02 08:45:10;;;;;;;7.70;2.08;;;13.80;72.30;;;;;;5032886;28;20036;-75
2022/04/02 08:48:28;;;;;;;13.00;2.55;;;13.60;68.80;;;;;;5020288;28;20048;-75
2022/04/02 08:51:46;;;;;;;10.82;2.33;;;13.70;69.50;;;;;;5032717;28;20049;-73
2022/04/02 08:55:13;;;;;;;13.32;2.50;;;13.70;70.90;;;;;;5032562;28;20060;-76
2022/04/02 08:58:22;;;;;;;11.02;1.75;;;13.60;74.30;;;;;;5032917;28;20620;-73
2022/04/02 09:01:36;;;;;;;9.80;1.92;;;13.50;71.90;;;;;;5032635;28;20048;-76
2022/04/02 09:04:59;;;;;;;7.25;2.30;;;13.50;74.60;;;;;;5032392;28;20411;-73
2022/04/02 09:08:38;;;;;;;10.68;1.58;;;13.40;74.30;;;;;;5020005;28;20040;-74
2022/04/02 09:12:03;;;;;;;7.95;1.83;;;13.30;76.20;;;;;;5032254;28;20097;-73
2022/04/02 09:15:25;;;;;;;4.72;1.77;;;13.00;80.70;;;;;;5032178;28;20536;-72
2022/04/02 09:18:45;;;;;;;11.60;2.15;;;12.80;81.70;;;;;;5031892;28;20045;-74
2022/04/02 09:22:06;;;;;;;7.35;2.42;;;12.60;84.00;;;;;;5032206;28;20040;-74
2022/04/02 09:25:19;;;;;;;10.35;3.35;;;12.70;86.20;;;;;;5032437;28;20052;-79
2022/04/02 09:28:43;;;;;;;8.13;3.00;;;12.70;87.10;;;;;;5019529;28;20108;-71
2022/04/02 09:32:05;;;;;;;5.57;2.20;;;12.40;87.20;;;;;;5018534;28;20052;-74
2022/04/02 09:35:21;;;;;;;19.73;2.47;;;11.90;87.60;;;;;;5019720;28;20523;-79
2022/04/02 09:38:43;;;;;;;5.63;2.42;;;11.60;89.00;;;;;;5031870;28;20048;-72
2022/04/02 09:41:53;;;;;;;16.73;7.50;;;11.40;90.90;;;;;;5031588;28;20044;-77
2022/04/02 09:45:13;;;;;;;14.25;7.38;;;11.60;90.90;;;;;;5031701;28;20068;-70
2022/04/02 09:48:24;;;;;;;13.07;2.03;;;11.70;91.70;;;;;;5031229;28;20044;-68
2022/04/02 09:51:34;;;;;;;7.20;1.50;;;11.80;87.20;;;;;;5031505;28;20049;-76
2022/04/02 09:55:06;;;;;;;12.05;1.63;;;11.90;84.60;;;;;;5031005;28;20048;-70
2022/04/02 09:58:23;;;;;;;6.53;1.75;;;11.80;86.00;;;;;;5031348;28;20536;-69
2022/04/02 10:01:33;;;;;;;6.38;2.17;;;11.80;87.50;;;;;;5031280;28;20044;-69
2022/04/02 10:04:48;;;;;;;11.82;2.38;;;11.80;87.50;;;;;;5031266;28;20048;-69
2022/04/02 10:08:08;;;;;;;7.70;1.88;;;11.80;90.40;;;;;;5019113;28;20044;-70
2022/04/02 10:11:15;;;;;;;7.78;2.33;;;12.00;91.20;;;;;;5031410;28;20064;-69
2022/04/02 10:14:22;;;;;;;14.35;2.70;;;12.10;91.60;;;;;;5019107;28;20052;-69
2022/04/02 10:17:28;;;;;;;10.93;2.75;;;12.10;90.80;;;;;;5030849;28;20112;-68
2022/04/02 10:20:35;;;;;;;18.20;3.78;;;12.20;90.70;;;;;;5030092;28;20433;-69
2022/04/02 10:23:50;;;;;;;12.77;2.95;;;12.20;90.20;;;;;;5018643;28;20049;-68
2022/04/02 10:26:56;;;;;;;10.35;2.53;;;12.30;91.20;;;;;;5030786;28;20401;-69
2022/04/02 10:30:00;;;;;;;10.68;4.55;;;12.40;90.30;;;;;;5030868;28;20040;-68
2022/04/02 10:33:28;;;;;;;9.68;2.17;;;12.50;87.40;;;;;;5030745;28;20048;-67
2022/04/02 10:36:41;;;;;;;8.50;2.28;;;12.50;88.20;;;;;;5030577;28;20056;-68
2022/04/02 10:40:04;;;;;;;7.63;1.95;;;12.50;88.00;;;;;;5030543;28;20052;-68
2022/04/02 10:43:20;;;;;;;7.80;2.20;;;12.60;89.20;;;;;;5030480;28;20048;-67
2022/04/02 10:46:26;;;;;;;10.18;2.72;;;12.60;89.90;;;;;;5031042;28;20048;-70
2022/04/02 10:49:38;;;;;;;6.85;2.40;;;12.50;89.50;;;;;;5030768;28;20046;-68
2022/04/02 10:52:46;;;;;;;10.55;2.65;;;12.50;88.30;;;;;;5018863;28;20421;-69
2022/04/02 10:55:59;;;;;;;8.27;2.30;;;12.40;88.80;;;;;;5030608;28;20056;-69
2022/04/02 10:59:07;;;;;;;8.32;3.72;;;12.40;90.80;;;;;;5030922;28;20044;-69
2022/04/02 11:02:22;;;;;;;11.32;1.70;;;12.10;91.70;;;;;;5030912;28;20041;-68
2022/04/02 11:05:29;;;;;;;9.57;2.92;;;11.90;92.30;;;;;;5030794;28;20056;-70
2022/04/02 11:08:33;;;;;;;7.93;1.83;;;11.60;92.40;;;;;;5030363;28;20044;-69
2022/04/02 11:11:40;;;;;;;3.17;1.60;;;11.40;92.60;;;;;;5030447;28;20136;-68
2022/04/02 11:14:48;;;;;;;4.28;1.45;;;11.20;92.20;;;;;;5030454;28;20048;-68
2022/04/02 11:17:54;;;;;;;6.38;2.47;;;11.00;92.80;;;;;;5030346;28;20052;-69
2022/04/02 11:21:04;;;;;;;10.55;2.78;;;10.90;93.40;;;;;;5028941;28;20052;-69
2022/04/02 11:24:16;;;;;;;5.38;2.83;;;10.80;93.80;;;;;;5018222;28;20520;-69
2022/04/02 11:27:27;;;;;;;5.88;2.38;;;10.70;93.70;;;;;;5017943;28;20057;-69
2022/04/02 11:30:59;;;;;;;5.57;1.90;;;10.60;93.70;;;;;;5030145;28;20401;-69
2022/04/02 11:34:08;;;;;;;7.45;2.30;;;10.50;93.60;;;;;;5018195;28;20048;-69
2022/04/02 11:37:15;;;;;;;3.67;1.50;;;10.50;93.30;;;;;;5018357;28;20041;-70
2022/04/02 11:40:20;;;;;;;2.08;0.90;;;10.40;92.10;;;;;;5030211;28;20292;-69
2022/04/02 11:43:31;;;;;;;10.55;3.67;;;10.30;92.20;;;;;;5030685;28;20044;-70
2022/04/02 11:46:57;;;;;;;3.83;1.52;;;10.50;91.30;;;;;;5029765;28;20512;-68
2022/04/02 11:50:08;;;;;;;4.72;2.00;;;10.70;91.30;;;;;;5029973;28;20048;-70
2022/04/02 11:53:13;;;;;;;6.97;2.83;;;10.80;90.70;;;;;;5030689;28;20488;-70
2022/04/02 11:56:32;;;;;;;4.43;1.10;;;10.80;91.00;;;;;;5033835;28;20060;-69
2022/04/02 11:59:37;;;;;;;6.72;1.60;;;10.80;87.70;;;;;;5034142;28;20044;-67
2022/04/02 12:02:43;;;;;;;4.00;1.30;;;10.90;88.40;;;;;;5034169;28;20040;-73
2022/04/02 12:05:49;;;;;;;4.78;1.73;;;10.90;89.00;;;;;;5033892;28;20044;-69
2022/04/02 12:08:55;;;;;;;5.75;1.33;;;11.10;89.90;;;;;;5033786;28;20056;-73
2022/04/02 12:12:05;;;;;;;4.10;1.40;;;11.10;88.70;;;;;;5033716;28;20044;-75
2022/04/02 12:15:10;;;;;;;7.68;2.22;;;11.30;88.50;;;;;;5033246;28;20405;-70
2022/04/02 12:18:15;;;;;;;4.97;2.30;;;11.30;89.50;;;;;;5009839;28;20037;-71
2022/04/02 12:21:34;;;;;;;11.40;3.42;;;11.30;90.40;;;;;;5033228;28;20036;-70
2022/04/02 12:24:38;;;;;;;7.63;2.30;;;11.30;91.60;;;;;;5033733;28;20040;-74
2022/04/02 12:27:50;;;;;;;8.80;2.38;;;11.40;91.50;;;;;;5021291;28;20052;-73
2022/04/02 12:31:03;;;;;;;12.18;4.35;;;11.30;90.60;;;;;;5033294;28;20061;-78
2022/04/02 12:34:07;;;;;;;5.60;2.20;;;11.30;91.50;;;;;;5033217;28;20531;-73
2022/04/02 12:37:12;;;;;;;7.20;3.03;;;11.30;92.00;;;;;;5033309;28;20053;-73
2022/04/02 12:40:24;;;;;;;7.55;1.77;;;11.40;91.70;;;;;;5032634;28;20347;-76
2022/04/02 12:43:33;;;;;;;4.70;1.48;;;11.60;90.60;;;;;;5031479;28;20508;-70
2022/04/02 12:46:37;;;;;;;8.55;1.30;;;11.80;90.10;;;;;;5020731;28;20041;-72
2022/04/02 12:49:41;;;;;;;6.80;1.45;;;11.90;86.60;;;;;;5032869;28;20044;-69
2022/04/02 12:52:48;;;;;;;3.60;1.75;;;12.00;88.60;;;;;;5032490;28;20504;-71
2022/04/02 12:55:53;;;;;;;3.47;1.55;;;12.00;85.60;;;;;;5032454;28;20155;-73
2022/04/02 12:58:59;;;;;;;3.38;1.60;;;12.10;87.00;;;;;;5020503;28;20532;-75
2022/04/02 13:02:04;;;;;;;12.15;1.75;;;12.10;87.90;;;;;;5032575;28;20099;-69
2022/04/02 13:05:14;;;;;;;5.90;1.63;;;12.00;87.90;;;;;;5032427;28;20053;-70
2022/04/02 13:08:23;;;;;;;7.88;2.05;;;12.00;90.40;;;;;;5032447;28;20425;-74
2022/04/02 13:11:38;;;;;;;5.32;1.25;;;11.80;90.40;;;;;;5032497;28;20044;-70
2022/04/02 13:14:48;;;;;;;3.17;1.17;;;11.80;90.20;;;;;;5032323;28;20048;-73
2022/04/02 13:21:33;;;;;;;6.68;1.67;;;11.80;89.70;;;;;;5032450;28;20048;-73
2022/04/02 13:24:58;;;;;;;7.82;2.05;;;12.00;90.00;;;;;;5032315;28;20385;-74
2022/04/02 13:28:20;;;;;;;8.43;3.92;;;12.10;89.10;;;;;;5032187;28;20045;-74
2022/04/02 13:31:29;;;;;;;10.38;3.13;;;12.10;88.00;;;;;;5019510;28;20053;-67
2022/04/02 13:34:43;;;;;;;19.00;9.38;;;11.90;90.20;;;;;;5032005;28;20401;-68
2022/04/02 13:38:06;;;;;;;7.20;3.42;;;11.70;91.00;;;;;;5031178;28;20056;-68
2022/04/02 13:41:13;;;;;;;9.65;4.80;;;11.70;90.60;;;;;;5031605;28;20393;-68
2022/04/02 13:44:25;;;;;;;5.82;2.90;;;11.80;91.00;;;;;;5031826;28;20052;-67
2022/04/02 13:47:31;;;;;;;6.22;2.10;;;11.90;90.50;;;;;;5019663;28;20052;-69
2022/04/02 13:50:43;;;;;;;6.43;2.40;;;12.10;88.60;;;;;;5019759;28;20044;-68
2022/04/02 13:53:52;;;;;;;7.85;2.15;;;12.20;89.60;;;;;;5031634;28;20041;-68
2022/04/02 13:57:00;;;;;;;9.20;1.75;;;12.20;89.70;;;;;;5031281;28;20064;-68
2022/04/02 14:00:10;;;;;;;6.15;1.52;;;12.30;87.50;;;;;;5031435;28;20053;-68
2022/04/02 14:03:20;;;;;;;5.50;2.50;;;12.20;86.30;;;;;;5031758;28;20060;-68
2022/04/02 14:06:25;;;;;;;22.35;4.80;;;12.30;88.30;;;;;;5031166;28;20589;-68
2022/04/02 14:09:31;;;;;;;10.23;4.68;;;12.30;90.30;;;;;;5030912;28;20056;-70
2022/04/02 14:12:43;;;;;;;10.88;4.05;;;12.30;92.90;;;;;;5030425;28;20048;-73
2022/04/02 14:16:02;;;;;;;17.15;4.82;;;11.80;93.20;;;;;;5031079;28;20056;-70
2022/04/02 14:19:10;;;;;;;9.38;3.63;;;11.40;92.10;;;;;;5031366;28;20056;-69
2022/04/02 14:22:20;;;;;;;52.58;25.17;;;11.20;91.80;;;;;;5019071;28;20045;-70
2022/04/02 14:25:52;;;;;;;97.47;50.40;;;11.00;92.70;;;;;;5031201;28;20508;-71
2022/04/02 14:29:08;;;;;;;42.67;23.42;;;10.90;92.90;;;;;;5031077;28;20048;-73
2022/04/02 14:32:52;;;;;;;21.45;10.82;;;10.90;94.00;;;;;;5030810;28;20057;-70
2022/04/02 14:36:27;;;;;;;20.10;7.72;;;11.00;94.50;;;;;;5021400;28;20064;-70
2022/04/02 14:39:31;;;;;;;18.35;8.38;;;11.00;94.50;;;;;;5030972;28;20045;-75
2022/04/02 14:42:57;;;;;;;12.75;6.60;;;11.10;94.90;;;;;;5031285;28;20037;-70
2022/04/02 14:46:04;;;;;;;19.80;10.02;;;11.00;94.80;;;;;;5030748;28;20513;-71
2022/04/02 14:49:46;;;;;;;14.13;6.72;;;11.00;95.20;;;;;;5030561;28;20052;-73
2022/04/02 14:53:28;;;;;;;13.15;6.03;;;10.90;95.70;;;;;;5030799;28;20045;-72
2022/04/02 14:57:16;;;;;;;13.52;6.07;;;11.00;95.50;;;;;;5018352;28;20068;-71
2022/04/02 15:00:26;;;;;;;11.35;5.20;;;11.10;95.30;;;;;;5030796;28;20045;-69
2022/04/02 15:03:30;;;;;;;13.32;6.13;;;11.00;94.80;;;;;;5018324;28;20048;-70
2022/04/02 15:07:12;;;;;;;12.38;5.97;;;11.10;94.50;;;;;;5030621;28;20045;-70
2022/04/02 15:10:30;;;;;;;13.73;5.63;;;11.10;94.80;;;;;;5030654;28;20037;-72
2022/04/02 15:13:35;;;;;;;18.45;7.18;;;11.10;94.10;;;;;;5018441;28;20048;-69
2022/04/02 15:16:41;;;;;;;13.60;6.85;;;11.10;94.20;;;;;;5030146;28;20504;-69
2022/04/02 15:19:48;;;;;;;11.73;7.30;;;11.00;94.60;;;;;;5007153;28;20386;-70
2022/04/02 15:23:11;;;;;;;20.75;9.43;;;11.00;94.70;;;;;;5030555;28;20057;-71
2022/04/02 15:26:20;;;;;;;16.17;9.25;;;11.00;95.00;;;;;;5030166;28;20044;-70
2022/04/02 15:29:37;;;;;;;18.98;8.43;;;11.10;95.00;;;;;;5031590;28;20397;-69
2022/04/02 15:32:41;;;;;;;16.88;8.23;;;11.10;93.90;;;;;;5033939;28;20064;-69
2022/04/02 15:35:49;;;;;;;9.43;3.13;;;11.10;94.10;;;;;;5010774;28;20068;-69
2022/04/02 15:38:56;;;;;;;3.80;1.63;;;11.20;94.00;;;;;;5022058;28;20044;-70
2022/04/02 15:42:19;;;;;;;10.18;2.20;;;11.10;91.20;;;;;;5034071;28;20045;-70
2022/04/02 15:45:24;;;;;;;8.57;3.17;;;11.00;91.60;;;;;;5020349;28;20048;-69
2022/04/02 15:49:18;;;;;;;15.05;6.93;;;10.70;91.90;;;;;;5032663;28;20040;-69
2022/04/02 15:52:21;;;;;;;10.20;2.72;;;10.40;93.00;;;;;;5009968;28;20044;-70
2022/04/02 15:55:27;;;;;;;11.25;3.97;;;10.30;93.40;;;;;;5033684;28;20401;-70
2022/04/02 15:58:35;;;;;;;10.77;3.38;;;10.30;93.60;;;;;;5021246;28;20068;-70
2022/04/02 16:01:44;;;;;;;6.97;2.75;;;10.30;94.20;;;;;;5021513;28;20045;-70
2022/04/02 16:05:07;;;;;;;10.68;3.13;;;10.50;93.70;;;;;;5021144;28;20048;-69
2022/04/02 16:08:16;;;;;;;9.88;4.18;;;10.50;93.20;;;;;;5021036;28;20064;-69
2022/04/02 16:11:31;;;;;;;7.07;4.22;;;10.50;93.90;;;;;;5039104;28;20064;-69
2022/04/02 16:14:35;;;;;;;9.23;4.78;;;10.40;94.10;;;;;;5033987;28;20037;-68
2022/04/02 16:18:11;;;;;;;11.68;5.45;;;10.30;94.80;;;;;;5033713;28;20052;-69
2022/04/02 16:21:17;;;;;;;11.88;5.28;;;10.10;95.20;;;;;;5021376;28;20037;-69
2022/04/02 16:24:24;;;;;;;6.60;2.70;;;10.20;95.00;;;;;;5033844;28;20045;-68
2022/04/02 16:27:31;;;;;;;7.50;2.50;;;10.20;93.90;;;;;;5022219;28;20100;-71
2022/04/02 16:30:36;;;;;;;11.48;3.08;;;10.30;93.30;;;;;;5034382;28;20056;-71